createdAt,value
2023-03-06T00:00:52.670Z,94.41
2023-03-06T00:01:52.659Z,94.62
2023-03-06T00:02:52.650Z,95.09
2023-03-06T00:03:52.685Z,94.47
2023-03-06T00:04:52.816Z,94.68
2023-03-06T00:05:52.670Z,94.72
2023-03-06T00:06:52.645Z,94.82
2023-03-06T00:07:52.641Z,94.82
2023-03-06T00:08:52.611Z,95.03
2023-03-06T00:09:52.620Z,95.14
2023-03-06T00:10:52.664Z,95.30
2023-03-06T00:11:52.574Z,94.99
2023-03-06T00:12:52.583Z,94.89
2023-03-06T00:13:52.593Z,95.20
2023-03-06T00:14:52.558Z,95.40
2023-03-06T00:15:52.661Z,94.68
2023-03-06T00:16:52.610Z,94.78
2023-03-06T00:17:52.565Z,94.51
2023-03-06T00:18:52.571Z,94.72
2023-03-06T00:19:52.540Z,94.93
2023-03-06T00:20:52.527Z,94.82
2023-03-06T00:21:52.521Z,94.47
2023-03-06T00:22:52.564Z,94.99
2023-03-06T00:23:52.538Z,94.78
2023-03-06T00:24:52.504Z,94.16
2023-03-06T00:25:52.480Z,94.68
2023-03-06T00:26:52.503Z,94.41
2023-03-06T00:27:52.502Z,94.57
2023-03-06T00:28:52.513Z,94.62
2023-03-06T00:29:52.483Z,95.03
2023-03-06T00:30:52.469Z,95.03
2023-03-06T00:31:52.464Z,94.82
2023-03-06T00:32:52.440Z,94.68
2023-03-06T00:33:52.473Z,94.57
2023-03-06T00:34:52.490Z,94.72
2023-03-06T00:35:52.447Z,95.14
2023-03-06T00:36:52.426Z,95.45
2023-03-06T00:37:52.438Z,95.56
2023-03-06T00:38:52.402Z,95.03
2023-03-06T00:39:52.409Z,95.14
2023-03-06T00:40:53.343Z,95.25
2023-03-06T00:41:52.388Z,95.14
2023-03-06T00:42:52.410Z,95.14
2023-03-06T00:43:52.377Z,95.45
2023-03-06T00:44:52.364Z,95.25
2023-03-06T00:45:55.955Z,95.56
2023-03-06T00:46:52.397Z,95.14
2023-03-06T00:47:52.346Z,95.25
2023-03-06T00:48:52.327Z,95.14
2023-03-06T00:49:52.359Z,94.93
2023-03-06T00:50:52.342Z,95.25
2023-03-06T00:51:52.308Z,95.20
2023-03-06T00:52:52.341Z,94.57
2023-03-06T00:54:00.943Z,94.57
2023-03-06T00:54:52.313Z,94.72
2023-03-06T00:55:52.286Z,94.62
2023-03-06T00:56:52.265Z,94.78
2023-03-06T00:57:52.271Z,94.47
2023-03-06T00:58:52.316Z,94.68
2023-03-06T00:59:52.258Z,94.41
2023-03-06T01:00:52.265Z,94.78
2023-03-06T01:01:52.274Z,94.82
2023-03-06T01:02:52.238Z,94.99
2023-03-06T01:03:52.240Z,95.03
2023-03-06T01:04:52.294Z,94.93
2023-03-06T01:05:52.216Z,94.78
2023-03-06T01:06:52.207Z,94.72
2023-03-06T01:07:52.195Z,94.51
2023-03-06T01:08:52.208Z,94.72
2023-03-06T01:09:52.205Z,94.89
2023-03-06T01:10:52.247Z,94.62
2023-03-06T01:11:52.222Z,94.62
2023-03-06T01:12:52.166Z,95.35
2023-03-06T01:13:52.168Z,95.35
2023-03-06T01:14:52.152Z,95.20
2023-03-06T01:15:52.154Z,95.14
2023-03-06T01:16:52.185Z,95.03
2023-03-06T01:17:52.148Z,94.99
2023-03-06T01:19:08.602Z,94.62
2023-03-06T01:19:52.123Z,95.09
2023-03-06T01:20:52.138Z,94.78
2023-03-06T01:21:52.123Z,95.25
2023-03-06T01:22:52.145Z,94.51
2023-03-06T01:23:52.102Z,94.62
2023-03-06T01:24:52.076Z,94.68
2023-03-06T01:25:52.074Z,94.99
2023-03-06T01:26:52.087Z,95.03
2023-03-06T01:27:52.067Z,94.41
2023-03-06T01:28:52.135Z,94.99
2023-03-06T01:29:52.047Z,95.25
2023-03-06T01:30:52.035Z,94.72
2023-03-06T01:31:52.129Z,94.93
2023-03-06T01:32:52.043Z,95.30
2023-03-06T01:33:52.023Z,95.45
2023-03-06T01:34:57.612Z,95.45
2023-03-06T01:35:53.022Z,95.35
2023-03-06T01:36:51.994Z,95.76
2023-03-06T01:37:51.975Z,95.35
2023-03-06T01:38:52.134Z,94.93
2023-03-06T01:39:51.982Z,95.35
2023-03-06T01:40:52.031Z,95.56
2023-03-06T01:41:51.948Z,95.76
2023-03-06T01:42:55.817Z,95.66
2023-03-06T01:43:51.963Z,95.66
2023-03-06T01:44:51.943Z,95.66
2023-03-06T01:45:51.977Z,95.66
2023-03-06T01:46:52.185Z,95.45
2023-03-06T01:48:04.453Z,95.81
2023-03-06T01:48:51.924Z,95.81
2023-03-06T01:49:51.919Z,95.91
2023-03-06T01:50:51.917Z,95.56
2023-03-06T01:51:51.904Z,95.66
2023-03-06T01:52:51.966Z,95.76
2023-03-06T01:53:51.886Z,95.56
2023-03-06T01:54:51.949Z,95.97
2023-03-06T01:55:51.952Z,95.56
2023-03-06T01:56:51.853Z,95.76
2023-03-06T01:57:51.846Z,95.76
2023-03-06T01:58:51.927Z,95.97
2023-03-06T01:59:51.842Z,95.66
2023-03-06T02:00:51.878Z,96.39
2023-03-06T02:01:51.863Z,95.87
2023-03-06T02:02:51.815Z,96.08
2023-03-06T02:03:51.811Z,95.45
2023-03-06T02:04:51.841Z,95.66
2023-03-06T02:05:51.806Z,95.91
2023-03-06T02:06:51.822Z,95.97
2023-03-06T02:07:51.792Z,95.76
2023-03-06T02:09:03.597Z,95.56
2023-03-06T02:09:52.828Z,95.87
2023-03-06T02:10:51.770Z,95.76
2023-03-06T02:11:51.861Z,95.66
2023-03-06T02:12:51.759Z,95.87
2023-03-06T02:13:51.769Z,95.87
2023-03-06T02:14:51.759Z,95.25
2023-03-06T02:15:51.779Z,95.56
2023-03-06T02:16:51.792Z,95.83
2023-03-06T02:17:51.728Z,95.45
2023-03-06T02:18:51.718Z,95.09
2023-03-06T02:19:51.722Z,95.20
2023-03-06T02:20:51.719Z,95.14
2023-03-06T02:21:51.746Z,95.14
2023-03-06T02:22:51.682Z,95.14
2023-03-06T02:23:51.681Z,95.66
2023-03-06T02:24:51.696Z,95.45
2023-03-06T02:25:51.674Z,95.87
2023-03-06T02:26:51.672Z,95.56
2023-03-06T02:27:51.711Z,95.76
2023-03-06T02:28:51.650Z,95.87
2023-03-06T02:29:51.634Z,95.87
2023-03-06T02:30:51.688Z,96.18
2023-03-06T02:31:51.625Z,96.53
2023-03-06T02:32:51.637Z,96.64
2023-03-06T02:33:51.649Z,96.85
2023-03-06T02:34:51.629Z,96.33
2023-03-06T02:35:51.603Z,96.91
2023-03-06T02:36:51.575Z,96.59
2023-03-06T02:37:51.582Z,96.53
2023-03-06T02:38:51.583Z,97.06
2023-03-06T02:39:51.630Z,96.95
2023-03-06T02:40:51.564Z,97.06
2023-03-06T02:41:51.552Z,97.27
2023-03-06T02:42:51.597Z,97.37
2023-03-06T02:43:51.554Z,97.27
2023-03-06T02:44:51.541Z,97.47
2023-03-06T02:45:51.615Z,97.47
2023-03-06T02:46:51.532Z,97.47
2023-03-06T02:47:51.532Z,97.58
2023-03-06T02:48:51.534Z,97.52
2023-03-06T02:49:51.500Z,97.99
2023-03-06T02:50:51.494Z,97.68
2023-03-06T02:51:52.009Z,97.58
2023-03-06T02:52:51.480Z,97.62
2023-03-06T02:53:51.470Z,97.58
2023-03-06T02:54:51.502Z,97.72
2023-03-06T02:55:51.478Z,97.47
2023-03-06T02:56:51.444Z,97.47
2023-03-06T02:57:51.508Z,97.68
2023-03-06T02:58:51.497Z,97.06
2023-03-06T02:59:51.435Z,97.78
2023-03-06T03:00:51.441Z,97.47
2023-03-06T03:01:51.444Z,97.99
2023-03-06T03:02:51.428Z,97.47
2023-03-06T03:03:51.473Z,97.58
2023-03-06T03:04:51.445Z,97.27
2023-03-06T03:05:51.416Z,97.47
2023-03-06T03:07:45.815Z,97.06
2023-03-06T03:07:52.406Z,97.68
2023-03-06T03:08:51.459Z,97.47
2023-03-06T03:09:51.382Z,97.58
2023-03-06T03:10:51.358Z,97.37
2023-03-06T03:11:51.333Z,97.37
2023-03-06T03:12:51.363Z,97.47
2023-03-06T03:13:51.341Z,97.89
2023-03-06T03:14:51.343Z,97.62
2023-03-06T03:15:51.414Z,97.06
2023-03-06T03:16:51.326Z,97.58
2023-03-06T03:17:51.315Z,97.52
2023-03-06T03:18:51.284Z,97.62
2023-03-06T03:19:51.318Z,97.52
2023-03-06T03:20:51.362Z,97.58
2023-03-06T03:21:51.320Z,97.47
2023-03-06T03:22:51.346Z,97.89
2023-03-06T03:23:51.279Z,97.62
2023-03-06T03:24:51.430Z,97.68
2023-03-06T03:25:51.247Z,97.41
2023-03-06T03:26:51.366Z,97.62
2023-03-06T03:27:51.287Z,97.83
2023-03-06T03:28:51.341Z,97.37
2023-03-06T03:29:51.229Z,98.04
2023-03-06T03:30:51.323Z,97.94
2023-03-06T03:31:51.201Z,97.68
2023-03-06T03:32:51.358Z,97.72
2023-03-06T03:33:51.240Z,97.41
2023-03-06T03:34:51.249Z,97.94
2023-03-06T03:35:51.226Z,97.94
2023-03-06T03:36:51.312Z,97.94
2023-03-06T03:37:51.164Z,97.94
2023-03-06T03:38:51.286Z,98.04
2023-03-06T03:39:51.216Z,98.25
2023-03-06T03:40:51.161Z,97.89
2023-03-06T03:41:51.120Z,97.89
2023-03-06T03:42:51.292Z,97.94
2023-03-06T03:43:51.124Z,97.89
2023-03-06T03:44:51.205Z,97.47
2023-03-06T03:45:51.149Z,97.47
2023-03-06T03:46:51.311Z,97.68
2023-03-06T03:47:51.110Z,97.06
2023-03-06T03:48:51.109Z,97.31
2023-03-06T03:49:51.081Z,97.37
2023-03-06T03:50:51.222Z,97.58
2023-03-06T03:51:51.140Z,97.37
2023-03-06T03:52:51.140Z,97.20
2023-03-06T03:53:51.069Z,98.04
2023-03-06T03:54:51.125Z,97.62
2023-03-06T03:55:51.034Z,97.99
2023-03-06T03:56:51.047Z,97.99
2023-03-06T03:57:51.474Z,98.04
2023-03-06T03:58:51.022Z,97.94
2023-03-06T03:59:51.015Z,97.83
2023-03-06T04:00:51.078Z,97.72
2023-03-06T04:01:51.035Z,97.62
2023-03-06T04:02:50.973Z,97.99
2023-03-06T04:03:51.145Z,97.58
2023-03-06T04:04:51.176Z,97.58
2023-03-06T04:05:50.977Z,97.78
2023-03-06T04:06:51.099Z,97.72
2023-03-06T04:07:50.953Z,98.04
2023-03-06T04:08:51.062Z,98.46
2023-03-06T04:09:50.990Z,98.66
2023-03-06T04:10:50.919Z,99.40
2023-03-06T04:11:50.934Z,98.31
2023-03-06T04:12:50.978Z,98.35
2023-03-06T04:13:50.932Z,98.35
2023-03-06T04:14:50.987Z,99.18
2023-03-06T04:15:51.143Z,98.25
2023-03-06T04:16:50.981Z,98.35
2023-03-06T04:17:50.913Z,98.46
2023-03-06T04:18:51.026Z,98.46
2023-03-06T04:19:50.871Z,98.87
2023-03-06T04:20:50.871Z,98.77
2023-03-06T04:21:50.899Z,98.77
2023-03-06T04:22:50.859Z,98.87
2023-03-06T04:24:07.191Z,98.77
2023-03-06T04:24:50.829Z,98.25
2023-03-06T04:25:50.827Z,99.08
2023-03-06T04:26:50.923Z,99.29
2023-03-06T04:27:50.863Z,98.87
2023-03-06T04:28:50.790Z,98.14
2023-03-06T04:29:50.793Z,98.56
2023-03-06T04:30:50.808Z,98.77
2023-03-06T04:31:50.792Z,98.56
2023-03-06T04:32:50.921Z,98.46
2023-03-06T04:33:50.822Z,99.08
2023-03-06T04:34:50.898Z,99.40
2023-03-06T04:35:50.800Z,98.66
2023-03-06T04:36:50.764Z,98.46
2023-03-06T04:37:50.756Z,98.62
2023-03-06T04:38:50.871Z,98.20
2023-03-06T04:39:50.771Z,99.14
2023-03-06T04:40:51.871Z,98.31
2023-03-06T04:41:50.729Z,98.20
2023-03-06T04:42:50.862Z,97.47
2023-03-06T04:43:50.736Z,98.41
2023-03-06T04:44:50.719Z,97.68
2023-03-06T04:45:50.799Z,97.94
2023-03-06T04:46:50.769Z,97.78
2023-03-06T04:47:50.705Z,97.83
2023-03-06T04:48:51.766Z,97.89
2023-03-06T04:49:50.662Z,98.10
2023-03-06T04:50:50.781Z,97.78
2023-03-06T04:51:50.691Z,97.68
2023-03-06T04:52:51.309Z,97.78
2023-03-06T04:53:50.641Z,97.53
2023-03-06T04:54:51.726Z,97.74
2023-03-06T04:55:50.664Z,97.99
2023-03-06T04:56:50.690Z,97.99
2023-03-06T04:57:50.686Z,97.89
2023-03-06T04:58:50.794Z,97.78
2023-03-06T04:59:50.618Z,97.78
2023-03-06T05:00:50.606Z,98.14
2023-03-06T05:01:50.609Z,97.78
2023-03-06T05:02:51.662Z,97.94
2023-03-06T05:03:50.950Z,97.83
2023-03-06T05:04:51.739Z,98.25
2023-03-06T05:05:50.583Z,97.62
2023-03-06T05:06:50.679Z,97.83
2023-03-06T05:07:50.539Z,98.10
2023-03-06T05:08:51.788Z,98.10
2023-03-06T05:09:50.571Z,98.04
2023-03-06T05:10:50.533Z,97.83
2023-03-06T05:11:50.505Z,97.83
2023-03-06T05:12:50.640Z,98.14
2023-03-06T05:13:50.504Z,97.72
2023-03-06T05:14:51.032Z,98.25
2023-03-06T05:15:50.535Z,97.94
2023-03-06T05:16:51.655Z,98.04
2023-03-06T05:17:50.475Z,97.72
2023-03-06T05:18:51.542Z,98.14
2023-03-06T05:19:50.481Z,97.62
2023-03-06T05:20:50.443Z,98.25
2023-03-06T05:21:50.475Z,98.14
2023-03-06T05:22:50.471Z,98.04
2023-03-06T05:23:50.454Z,98.14
2023-03-06T05:24:50.451Z,98.25
2023-03-06T05:25:50.428Z,98.04
2023-03-06T05:26:50.431Z,98.14
2023-03-06T05:27:50.431Z,98.25
2023-03-06T05:28:50.388Z,98.14
2023-03-06T05:29:50.381Z,98.04
2023-03-06T05:30:50.412Z,97.78
2023-03-06T05:31:50.444Z,97.83
2023-03-06T05:32:50.400Z,97.62
2023-03-06T05:33:50.416Z,97.72
2023-03-06T05:34:50.380Z,97.78
2023-03-06T05:35:50.425Z,97.68
2023-03-06T05:36:50.336Z,97.37
2023-03-06T05:37:50.341Z,97.58
2023-03-06T05:38:50.334Z,97.72
2023-03-06T05:39:50.389Z,97.37
2023-03-06T05:40:50.306Z,97.68
2023-03-06T05:41:50.322Z,97.47
2023-03-06T05:42:50.320Z,97.47
2023-03-06T05:43:50.318Z,97.58
2023-03-06T05:44:50.331Z,97.27
2023-03-06T05:45:50.401Z,97.58
2023-03-06T05:47:00.880Z,97.68
2023-03-06T05:47:51.261Z,97.27
2023-03-06T05:48:50.288Z,97.37
2023-03-06T05:49:50.264Z,97.06
2023-03-06T05:50:50.233Z,97.16
2023-03-06T05:51:50.274Z,97.06
2023-03-06T05:52:50.323Z,97.27
2023-03-06T05:53:50.245Z,97.53
2023-03-06T05:54:50.223Z,97.12
2023-03-06T05:55:50.264Z,97.27
2023-03-06T05:56:50.201Z,96.95
2023-03-06T05:57:50.245Z,96.12
2023-03-06T05:58:50.201Z,96.95
2023-03-06T05:59:50.171Z,96.64
2023-03-06T06:00:50.196Z,96.53
2023-03-06T06:01:50.168Z,96.16
2023-03-06T06:02:50.174Z,96.75
2023-03-06T06:03:50.436Z,96.95
2023-03-06T06:04:50.161Z,96.33
2023-03-06T06:05:50.178Z,95.91
2023-03-06T06:06:50.120Z,95.91
2023-03-06T06:07:50.143Z,95.81
2023-03-06T06:08:50.145Z,95.29
2023-03-06T06:09:50.167Z,95.95
2023-03-06T06:10:53.168Z,96.22
2023-03-06T06:11:50.093Z,96.43
2023-03-06T06:12:50.100Z,96.48
2023-03-06T06:13:50.113Z,96.48
2023-03-06T06:14:50.116Z,97.00
2023-03-06T06:15:50.118Z,96.53
2023-03-06T06:16:50.057Z,96.64
2023-03-06T06:17:50.063Z,96.85
2023-03-06T06:18:50.073Z,96.95
2023-03-06T06:19:50.037Z,96.75
2023-03-06T06:20:50.024Z,96.75
2023-03-06T06:21:50.116Z,96.53
2023-03-06T06:22:49.999Z,96.43
2023-03-06T06:23:50.689Z,96.95
2023-03-06T06:24:49.992Z,96.12
2023-03-06T06:25:50.017Z,96.75
2023-03-06T06:26:49.997Z,96.95
2023-03-06T06:27:50.010Z,97.16
2023-03-06T06:28:49.960Z,96.85
2023-03-06T06:29:49.958Z,96.95
2023-03-06T06:30:49.967Z,96.95
2023-03-06T06:31:49.960Z,96.18
2023-03-06T06:32:49.923Z,96.53
2023-03-06T06:33:49.986Z,96.59
2023-03-06T06:34:49.954Z,96.01
2023-03-06T06:35:49.964Z,96.75
2023-03-06T06:36:53.167Z,96.43
2023-03-06T06:37:49.906Z,96.33
2023-03-06T06:38:49.938Z,97.06
2023-03-06T06:39:49.969Z,97.16
2023-03-06T06:41:26.774Z,97.47
2023-03-06T06:42:06.335Z,97.27
2023-03-06T06:42:50.881Z,97.10
2023-03-06T06:43:49.883Z,97.16
2023-03-06T06:44:49.923Z,96.95
2023-03-06T06:45:50.526Z,97.06
2023-03-06T06:47:50.920Z,96.75
2023-03-06T06:48:49.855Z,96.95
2023-03-06T06:49:49.830Z,96.43
2023-03-06T06:50:49.858Z,96.53
2023-03-06T06:51:49.874Z,96.43
2023-03-06T06:52:49.803Z,96.53
2023-03-06T06:53:49.805Z,96.64
2023-03-06T06:54:49.806Z,96.22
2023-03-06T06:55:49.788Z,96.43
2023-03-06T06:56:49.788Z,96.95
2023-03-06T06:57:49.839Z,96.28
2023-03-06T06:58:49.777Z,96.80
2023-03-06T06:59:52.297Z,96.70
2023-03-06T07:00:49.783Z,96.08
2023-03-06T07:01:49.804Z,95.97
2023-03-06T07:02:49.751Z,95.66
2023-03-06T07:03:49.816Z,95.76
2023-03-06T07:05:03.206Z,96.08
2023-03-06T07:05:50.718Z,95.76
2023-03-06T07:06:49.754Z,95.76
2023-03-06T07:07:49.764Z,94.89
2023-03-06T07:08:49.726Z,95.30
2023-03-06T07:09:49.954Z,95.14
2023-03-06T07:10:49.697Z,95.30
2023-03-06T07:11:49.690Z,95.72
2023-03-06T07:12:49.660Z,95.40
2023-03-06T07:13:49.666Z,95.35
2023-03-06T07:14:49.663Z,94.89
2023-03-06T07:15:49.724Z,95.51
2023-03-06T07:16:49.644Z,95.14
2023-03-06T07:17:50.331Z,95.25
2023-03-06T07:18:49.623Z,94.89
2023-03-06T07:19:49.614Z,95.30
2023-03-06T07:20:49.625Z,95.30
2023-03-06T07:21:49.690Z,95.15
2023-03-06T07:22:51.610Z,94.84
2023-03-06T07:23:49.602Z,94.26
2023-03-06T07:24:49.599Z,94.68
2023-03-06T07:25:49.612Z,94.89
2023-03-06T07:26:49.580Z,95.57
2023-03-06T07:27:53.597Z,95.26
2023-03-06T07:28:52.930Z,95.30
2023-03-06T07:29:49.604Z,94.64
2023-03-06T07:30:49.554Z,94.89
2023-03-06T07:31:49.547Z,95.40
2023-03-06T07:32:49.545Z,95.15
2023-03-06T07:33:49.595Z,94.26
2023-03-06T07:34:49.519Z,94.32
2023-03-06T07:35:49.559Z,95.20
2023-03-06T07:36:49.505Z,94.57
2023-03-06T07:37:49.507Z,94.57
2023-03-06T07:38:49.546Z,95.30
2023-03-06T07:39:49.571Z,95.09
2023-03-06T07:40:49.528Z,95.30
2023-03-06T07:41:49.482Z,95.09
2023-03-06T07:42:49.475Z,94.93
2023-03-06T07:43:49.486Z,95.20
2023-03-06T07:44:49.459Z,95.51
2023-03-06T07:45:49.515Z,95.47
2023-03-06T07:46:49.546Z,94.26
2023-03-06T07:47:49.455Z,94.72
2023-03-06T07:48:49.461Z,94.78
2023-03-06T07:49:49.436Z,94.89
2023-03-06T07:50:49.431Z,93.80
2023-03-06T07:51:49.473Z,93.60
2023-03-06T07:52:49.411Z,93.60
2023-03-06T07:53:49.434Z,93.49
2023-03-06T07:54:49.397Z,93.39
2023-03-06T07:55:49.385Z,92.45
2023-03-06T07:56:49.373Z,93.18
2023-03-06T07:57:49.426Z,93.66
2023-03-06T07:58:49.397Z,93.62
2023-03-06T07:59:49.394Z,93.51
2023-03-06T08:00:49.372Z,92.78
2023-03-06T08:01:49.365Z,91.12
2023-03-06T08:02:49.371Z,91.18
2023-03-06T08:03:49.411Z,91.08
2023-03-06T08:04:49.339Z,91.28
2023-03-06T08:05:49.344Z,90.14
2023-03-06T08:06:49.350Z,89.62
2023-03-06T08:07:49.329Z,89.89
2023-03-06T08:08:49.308Z,88.92
2023-03-06T08:09:49.694Z,89.23
2023-03-06T08:10:49.295Z,88.32
2023-03-06T08:11:49.274Z,88.42
2023-03-06T08:12:49.305Z,85.11
2023-03-06T08:13:49.343Z,86.49
2023-03-06T08:14:49.273Z,86.80
2023-03-06T08:15:49.309Z,85.73
2023-03-06T08:16:49.252Z,83.97
2023-03-06T08:17:49.262Z,84.03
2023-03-06T08:18:49.234Z,84.17
2023-03-06T08:19:49.237Z,83.55
2023-03-06T08:20:49.224Z,84.52
2023-03-06T08:21:49.329Z,84.73
2023-03-06T08:22:49.201Z,84.52
2023-03-06T08:23:49.197Z,85.91
2023-03-06T08:24:49.185Z,86.29
2023-03-06T08:25:49.186Z,84.88
2023-03-06T08:26:49.207Z,84.73
2023-03-06T08:27:49.212Z,85.35
2023-03-06T08:28:49.194Z,85.66
2023-03-06T08:29:49.160Z,86.18
2023-03-06T08:30:49.139Z,85.46
2023-03-06T08:31:49.205Z,85.31
2023-03-06T08:32:49.122Z,84.52
2023-03-06T08:33:49.287Z,84.31
2023-03-06T08:34:49.214Z,83.48
2023-03-06T08:35:57.498Z,82.65
2023-03-06T08:36:49.093Z,83.22
2023-03-06T08:37:49.091Z,84.05
2023-03-06T08:38:49.094Z,84.11
2023-03-06T08:39:49.129Z,82.76
2023-03-06T08:40:49.090Z,83.17
2023-03-06T08:41:49.088Z,82.76
2023-03-06T08:42:49.110Z,82.14
2023-03-06T08:43:49.041Z,82.45
2023-03-06T08:44:49.051Z,82.55
2023-03-06T08:45:49.085Z,82.55
2023-03-06T08:46:49.024Z,82.28
2023-03-06T08:47:49.027Z,81.93
2023-03-06T08:48:49.056Z,82.45
2023-03-06T08:49:49.030Z,82.34
2023-03-06T08:50:49.057Z,82.45
2023-03-06T08:51:49.061Z,81.99
2023-03-06T08:52:48.997Z,82.24
2023-03-06T08:53:48.982Z,81.41
2023-03-06T08:54:48.973Z,81.82
2023-03-06T08:55:48.967Z,81.93
2023-03-06T08:56:48.987Z,81.41
2023-03-06T08:57:49.021Z,81.89
2023-03-06T08:58:48.960Z,80.75
2023-03-06T08:59:48.969Z,80.65
2023-03-06T09:00:48.990Z,80.89
2023-03-06T09:01:48.945Z,80.06
2023-03-06T09:02:48.914Z,80.65
2023-03-06T09:03:48.975Z,80.54
2023-03-06T09:04:48.911Z,80.33
2023-03-06T09:05:48.896Z,80.79
2023-03-06T09:06:48.872Z,80.68
2023-03-06T09:07:48.897Z,80.89
2023-03-06T09:08:48.901Z,82.03
2023-03-06T09:09:48.934Z,82.31
2023-03-06T09:10:48.889Z,81.89
2023-03-06T09:11:48.850Z,80.96
2023-03-06T09:12:51.353Z,81.48
2023-03-06T09:13:48.828Z,80.65
2023-03-06T09:14:48.861Z,80.65
2023-03-06T09:15:49.834Z,81.68
2023-03-06T09:16:48.845Z,81.89
2023-03-06T09:17:48.850Z,81.99
2023-03-06T09:18:48.918Z,82.20
2023-03-06T09:19:48.813Z,82.24
2023-03-06T09:20:49.875Z,83.15
2023-03-06T09:21:48.829Z,84.25
2023-03-06T09:22:48.789Z,83.84
2023-03-06T09:23:48.778Z,83.73
2023-03-06T09:24:48.758Z,85.04
2023-03-06T09:25:48.767Z,84.77
2023-03-06T09:26:50.523Z,84.50
2023-03-06T09:27:55.493Z,85.88
2023-03-06T09:28:49.756Z,85.99
2023-03-06T09:29:48.772Z,86.51
2023-03-06T09:30:48.760Z,87.19
2023-03-06T09:31:48.788Z,86.78
2023-03-06T09:32:48.712Z,86.93
2023-03-06T09:33:48.782Z,87.03
2023-03-06T09:34:48.735Z,87.45
2023-03-06T09:35:48.851Z,87.86
2023-03-06T09:36:56.630Z,87.86
2023-03-06T09:37:49.689Z,88.38
2023-03-06T09:38:48.679Z,89.11
2023-03-06T09:39:48.729Z,88.28
2023-03-06T09:40:48.651Z,89.11
2023-03-06T09:41:48.646Z,88.62
2023-03-06T09:42:48.631Z,89.21
2023-03-06T09:43:48.647Z,88.69
2023-03-06T09:44:48.656Z,89.73
2023-03-06T09:45:48.779Z,88.54
2023-03-06T09:46:48.641Z,88.44
2023-03-06T09:47:48.621Z,88.44
2023-03-06T09:48:48.611Z,88.13
2023-03-06T09:49:48.579Z,87.51
2023-03-06T09:50:48.580Z,87.71
2023-03-06T09:51:48.646Z,87.68
2023-03-06T09:52:48.577Z,86.85
2023-03-06T09:53:48.571Z,87.43
2023-03-06T09:54:48.584Z,87.07
2023-03-06T09:55:48.577Z,85.83
2023-03-06T09:56:48.565Z,86.66
2023-03-06T09:57:49.689Z,87.07
2023-03-06T09:58:48.566Z,85.17
2023-03-06T09:59:48.524Z,84.61
2023-03-06T10:00:48.536Z,84.16
2023-03-06T10:01:48.531Z,82.86
2023-03-06T10:02:48.685Z,82.44
2023-03-06T10:03:48.578Z,82.60
2023-03-06T10:04:48.544Z,82.50
2023-03-06T10:05:48.514Z,81.95
2023-03-06T10:06:48.495Z,81.95
2023-03-06T10:07:48.466Z,81.61
2023-03-06T10:08:48.464Z,82.06
2023-03-06T10:09:48.509Z,83.89
2023-03-06T10:10:48.457Z,83.50
2023-03-06T10:11:48.459Z,82.26
2023-03-06T10:12:48.447Z,80.46
2023-03-06T10:13:48.504Z,80.46
2023-03-06T10:14:49.371Z,80.46
2023-03-06T10:15:48.477Z,80.40
2023-03-06T10:16:48.404Z,82.03
2023-03-06T10:17:48.422Z,82.65
2023-03-06T10:18:48.421Z,82.68
2023-03-06T10:19:48.412Z,82.89
2023-03-06T10:20:48.412Z,83.76
2023-03-06T10:21:48.740Z,84.63
2023-03-06T10:23:00.831Z,85.25
2023-03-06T10:23:49.389Z,85.14
2023-03-06T10:24:48.381Z,85.71
2023-03-06T10:25:48.336Z,86.12
2023-03-06T10:26:48.470Z,85.19
2023-03-06T10:27:48.381Z,86.26
2023-03-06T10:28:48.325Z,86.68
2023-03-06T10:30:01.696Z,86.57
2023-03-06T10:30:49.355Z,86.72
2023-03-06T10:31:49.249Z,87.13
2023-03-06T10:32:49.448Z,86.93
2023-03-06T10:33:48.388Z,86.51
2023-03-06T10:34:48.278Z,86.57
2023-03-06T10:35:48.345Z,85.53
2023-03-06T10:36:48.296Z,85.64
2023-03-06T10:37:48.314Z,84.50
2023-03-06T10:38:48.286Z,85.33
2023-03-06T10:39:48.318Z,84.56
2023-03-06T10:40:48.239Z,84.56
2023-03-06T10:41:48.259Z,83.73
2023-03-06T10:42:49.549Z,83.73
2023-03-06T10:43:48.252Z,83.15
2023-03-06T10:44:48.221Z,83.15
2023-03-06T10:45:49.517Z,84.25
2023-03-06T10:46:48.246Z,83.32
2023-03-06T10:47:48.204Z,82.63
2023-03-06T10:48:48.183Z,82.94
2023-03-06T10:49:48.188Z,82.90
2023-03-06T10:50:48.179Z,82.70
2023-03-06T10:51:48.238Z,82.24
2023-03-06T10:52:48.168Z,81.68
2023-03-06T10:53:48.210Z,80.96
2023-03-06T10:54:48.182Z,80.65
2023-03-06T10:55:48.136Z,80.82
2023-03-06T10:56:48.137Z,79.27
2023-03-06T10:57:48.183Z,79.13
2023-03-06T10:58:48.152Z,77.88
2023-03-06T10:59:48.146Z,78.50
2023-03-06T11:00:48.125Z,77.43
2023-03-06T11:01:48.170Z,77.12
2023-03-06T11:02:48.100Z,76.61
2023-03-06T11:03:48.147Z,76.50
2023-03-06T11:04:48.176Z,76.95
2023-03-06T11:05:48.091Z,76.40
2023-03-06T11:06:48.085Z,77.12
2023-03-06T11:07:48.067Z,76.40
2023-03-06T11:08:48.087Z,76.40
2023-03-06T11:09:48.120Z,75.92
2023-03-06T11:10:48.052Z,76.50
2023-03-06T11:11:48.073Z,75.88
2023-03-06T11:12:48.101Z,75.36
2023-03-06T11:13:48.031Z,75.19
2023-03-06T11:14:48.107Z,75.74
2023-03-06T11:15:48.120Z,76.88
2023-03-06T11:16:48.048Z,77.61
2023-03-06T11:17:48.000Z,77.40
2023-03-06T11:18:48.072Z,77.36
2023-03-06T11:19:47.983Z,75.84
2023-03-06T11:20:52.447Z,74.71
2023-03-06T11:21:49.361Z,75.05
2023-03-06T11:22:49.233Z,74.84
2023-03-06T11:23:47.960Z,75.05
2023-03-06T11:24:47.984Z,74.98
2023-03-06T11:25:47.934Z,74.88
2023-03-06T11:26:47.921Z,75.71
2023-03-06T11:27:47.960Z,75.98
2023-03-06T11:28:47.984Z,74.11
2023-03-06T11:29:47.903Z,74.95
2023-03-06T11:30:47.885Z,74.53
2023-03-06T11:31:47.973Z,74.63
2023-03-06T11:32:47.886Z,75.63
2023-03-06T11:33:47.944Z,74.29
2023-03-06T11:34:50.270Z,74.40
2023-03-06T11:35:47.901Z,74.40
2023-03-06T11:36:47.849Z,73.01
2023-03-06T11:37:47.846Z,73.32
2023-03-06T11:38:47.856Z,73.08
2023-03-06T11:39:47.860Z,72.05
2023-03-06T11:40:47.847Z,71.63
2023-03-06T11:41:47.837Z,72.67
2023-03-06T11:42:47.834Z,72.22
2023-03-06T11:43:47.801Z,71.08
2023-03-06T11:44:47.830Z,71.26
2023-03-06T11:45:47.880Z,70.95
2023-03-06T11:46:47.835Z,70.92
2023-03-06T11:47:47.794Z,68.88
2023-03-06T11:48:47.821Z,69.32
2023-03-06T11:49:47.746Z,70.15
2023-03-06T11:50:47.842Z,70.64
2023-03-06T11:51:47.774Z,68.95
2023-03-06T11:52:47.741Z,69.47
2023-03-06T11:53:47.747Z,68.57
2023-03-06T11:54:47.751Z,68.70
2023-03-06T11:55:47.750Z,69.87
2023-03-06T11:56:47.740Z,70.67
2023-03-06T11:57:47.741Z,70.60
2023-03-06T11:58:47.737Z,70.47
2023-03-06T11:59:47.717Z,69.98
2023-03-06T12:00:47.733Z,70.60
2023-03-06T12:01:47.716Z,71.25
2023-03-06T12:02:47.667Z,71.36
2023-03-06T12:03:47.769Z,70.87
2023-03-06T12:04:47.730Z,71.88
2023-03-06T12:05:47.761Z,71.46
2023-03-06T12:06:47.736Z,70.94
2023-03-06T12:07:48.840Z,72.50
2023-03-06T12:08:47.665Z,72.08
2023-03-06T12:09:47.698Z,71.84
2023-03-06T12:10:51.583Z,72.29
2023-03-06T12:11:47.618Z,72.19
2023-03-06T12:12:47.679Z,72.39
2023-03-06T12:13:47.641Z,73.05
2023-03-06T12:14:47.619Z,72.19
2023-03-06T12:15:47.645Z,72.88
2023-03-06T12:16:47.692Z,72.29
2023-03-06T12:17:47.591Z,72.11
2023-03-06T12:18:47.572Z,72.84
2023-03-06T12:19:47.657Z,72.84
2023-03-06T12:20:47.590Z,73.05
2023-03-06T12:21:47.619Z,73.77
2023-03-06T12:22:57.532Z,73.77
2023-03-06T12:23:48.557Z,73.67
2023-03-06T12:24:47.524Z,73.46
2023-03-06T12:25:47.518Z,73.77
2023-03-06T12:26:47.503Z,73.25
2023-03-06T12:27:47.535Z,74.05
2023-03-06T12:28:47.547Z,73.22
2023-03-06T12:29:47.484Z,73.22
2023-03-06T12:30:47.497Z,72.77
2023-03-06T12:31:47.549Z,72.12
2023-03-06T12:32:47.659Z,71.12
2023-03-06T12:33:47.926Z,71.01
2023-03-06T12:34:47.459Z,71.50
2023-03-06T12:35:47.509Z,70.98
2023-03-06T12:36:47.521Z,70.95
2023-03-06T12:37:47.450Z,71.15
2023-03-06T12:38:47.454Z,71.05
2023-03-06T12:39:47.484Z,71.26
2023-03-06T12:40:47.406Z,71.05
2023-03-06T12:41:47.601Z,70.64
2023-03-06T12:42:47.485Z,71.91
2023-03-06T12:43:47.385Z,71.88
2023-03-06T12:44:47.413Z,70.74
2023-03-06T12:45:47.593Z,71.39
2023-03-06T12:46:47.459Z,71.08
2023-03-06T12:47:47.347Z,71.19
2023-03-06T12:48:47.363Z,71.50
2023-03-06T12:49:47.596Z,71.84
2023-03-06T12:50:47.357Z,72.22
2023-03-06T12:51:47.493Z,71.70
2023-03-06T12:52:47.325Z,71.73
2023-03-06T12:53:47.346Z,72.15